createdAt,value
2018-01-24T00:02:23.814Z,99.90
2018-01-24T00:04:51.694Z,99.90
2018-01-24T00:07:23.248Z,99.90
2018-01-24T00:09:51.152Z,99.90
2018-01-24T00:12:18.883Z,99.90
2018-01-24T00:14:46.629Z,99.90
2018-01-24T00:17:14.408Z,99.90
2018-01-24T00:19:42.168Z,99.90
2018-01-24T00:22:09.948Z,99.90
2018-01-24T00:24:37.521Z,99.90
2018-01-24T00:27:09.347Z,99.90
2018-01-24T00:29:37.119Z,99.90
2018-01-24T00:32:04.836Z,99.90
2018-01-24T00:34:33.256Z,99.90
2018-01-24T00:37:00.819Z,99.90
2018-01-24T00:39:28.587Z,99.90
2018-01-24T00:41:56.440Z,99.90
2018-01-24T00:44:24.228Z,99.90
2018-01-24T00:46:53.422Z,99.90
2018-01-24T00:49:21.187Z,99.90
2018-01-24T00:51:48.949Z,99.90
2018-01-24T00:54:16.709Z,99.90
2018-01-24T00:56:44.481Z,99.90
2018-01-24T00:59:12.235Z,99.90
2018-01-24T01:01:40.008Z,99.90
2018-01-24T01:04:08.477Z,99.90
2018-01-24T01:06:36.331Z,99.90
2018-01-24T01:09:06.284Z,99.90
2018-01-24T01:11:34.949Z,99.90
2018-01-24T01:14:03.632Z,99.90
2018-01-24T01:16:31.497Z,99.90
2018-01-24T01:18:59.040Z,99.90
2018-01-24T01:21:26.832Z,99.90
2018-01-24T01:23:54.597Z,99.90
2018-01-24T01:26:23.461Z,99.90
2018-01-24T01:28:57.923Z,99.90
2018-01-24T01:31:27.760Z,99.90
2018-01-24T01:33:55.581Z,99.90
2018-01-24T01:36:23.346Z,99.90
2018-01-24T01:38:55.027Z,99.90
2018-01-24T01:41:23.485Z,99.90
2018-01-24T01:43:52.050Z,99.90
2018-01-24T01:46:19.833Z,99.90
2018-01-24T01:48:52.002Z,99.90
2018-01-24T01:51:24.629Z,99.90
2018-01-24T01:53:52.449Z,99.90
2018-01-24T01:56:20.214Z,99.90
2018-01-24T01:58:48.613Z,99.90
2018-01-24T02:01:17.170Z,99.90
2018-01-24T02:03:44.843Z,99.90
2018-01-24T02:06:12.601Z,99.90
2018-01-24T02:08:40.133Z,99.90
2018-01-24T02:11:07.676Z,99.90
2018-01-24T02:13:35.256Z,99.90
2018-01-24T02:16:02.817Z,99.90
2018-01-24T02:18:30.336Z,99.90
2018-01-24T02:20:57.857Z,99.90
2018-01-24T02:23:25.396Z,99.90
2018-01-24T02:25:53.684Z,99.90
2018-01-24T02:28:21.228Z,99.90
2018-01-24T02:30:49.530Z,99.90
2018-01-24T02:33:17.080Z,99.90
2018-01-24T02:35:44.608Z,99.90
2018-01-24T02:38:24.017Z,99.90
2018-01-24T02:40:51.547Z,99.90
2018-01-24T02:43:19.110Z,99.90
2018-01-24T02:45:46.644Z,99.90
2018-01-24T02:48:14.179Z,99.90
2018-01-24T02:50:41.740Z,99.90
2018-01-24T02:53:09.276Z,99.90
2018-01-24T02:55:36.820Z,99.90
2018-01-24T02:58:04.343Z,99.90
2018-01-24T03:00:32.682Z,99.90
2018-01-24T03:03:00.207Z,99.90
2018-01-24T03:05:27.749Z,99.90
2018-01-24T03:07:56.103Z,99.90
2018-01-24T03:10:23.638Z,99.90
2018-01-24T03:12:51.960Z,99.90
2018-01-24T03:15:19.471Z,99.90
2018-01-24T03:17:47.780Z,99.90
2018-01-24T03:20:15.308Z,99.90
2018-01-24T03:22:43.618Z,99.90
2018-01-24T03:25:11.172Z,99.90
2018-01-24T03:27:38.722Z,99.90
2018-01-24T03:30:07.012Z,99.90
2018-01-24T03:32:34.556Z,99.90
2018-01-24T03:35:02.842Z,99.90
2018-01-24T03:37:30.395Z,99.90
2018-01-24T03:39:58.681Z,99.90
2018-01-24T03:42:26.240Z,99.90
2018-01-24T03:44:53.778Z,99.90
2018-01-24T03:47:22.108Z,99.90
2018-01-24T03:49:49.650Z,99.90
2018-01-24T03:52:17.186Z,99.90
2018-01-24T03:54:45.491Z,99.90
2018-01-24T03:57:13.020Z,99.90
2018-01-24T03:59:41.338Z,99.90
2018-01-24T04:02:08.869Z,99.90
2018-01-24T04:04:36.415Z,99.90
2018-01-24T04:07:04.712Z,99.90
2018-01-24T04:09:32.247Z,99.90
2018-01-24T04:11:59.787Z,99.90
2018-01-24T04:14:27.324Z,99.90
2018-01-24T04:16:54.859Z,99.90
2018-01-24T04:19:22.408Z,99.90
2018-01-24T04:21:49.953Z,99.90
2018-01-24T04:24:17.547Z,99.90
2018-01-24T04:26:45.103Z,99.90
2018-01-24T04:29:12.631Z,99.90
2018-01-24T04:31:40.181Z,99.90
2018-01-24T04:34:07.702Z,99.90
2018-01-24T04:36:35.253Z,99.90
2018-01-24T04:39:02.785Z,99.90
2018-01-24T04:41:30.656Z,99.90
2018-01-24T04:43:58.180Z,99.90
2018-01-24T04:46:25.729Z,99.90
2018-01-24T04:48:53.268Z,99.90
2018-01-24T04:51:20.827Z,99.90
2018-01-24T04:53:48.354Z,99.90
2018-01-24T04:56:16.656Z,99.90
2018-01-24T04:58:44.977Z,99.90
2018-01-24T05:01:12.511Z,99.90
2018-01-24T05:03:40.052Z,99.90
2018-01-24T05:06:08.350Z,99.90
2018-01-24T05:08:35.895Z,99.90
2018-01-24T05:11:04.190Z,99.90
2018-01-24T05:13:31.740Z,99.90
2018-01-24T05:15:59.265Z,99.90
2018-01-24T05:18:26.785Z,99.90
2018-01-24T05:20:54.325Z,99.90
2018-01-24T05:23:21.849Z,99.90
2018-01-24T05:25:51.353Z,99.90
2018-01-24T05:28:18.890Z,99.90
2018-01-24T05:30:46.432Z,99.90
2018-01-24T05:33:13.959Z,99.90
2018-01-24T05:35:41.542Z,99.90
2018-01-24T05:38:09.072Z,99.90
2018-01-24T05:40:37.778Z,99.90
2018-01-24T05:43:05.342Z,99.90
2018-01-24T05:45:32.888Z,99.90
2018-01-24T05:48:00.422Z,99.90
2018-01-24T05:50:28.719Z,99.90
2018-01-24T05:52:56.281Z,99.90
2018-01-24T05:55:23.836Z,99.90
2018-01-24T05:57:51.391Z,99.90
2018-01-24T06:00:19.696Z,99.90
2018-01-24T06:02:47.232Z,99.90
2018-01-24T06:05:15.540Z,99.90
2018-01-24T06:07:43.052Z,99.90
2018-01-24T06:10:11.366Z,99.90
2018-01-24T06:12:38.916Z,99.90
2018-01-24T06:15:06.461Z,99.90
2018-01-24T06:17:34.767Z,99.90
2018-01-24T06:20:02.308Z,99.90
2018-01-24T06:22:29.839Z,99.90
2018-01-24T06:24:58.160Z,99.90
2018-01-24T06:27:26.248Z,99.90
2018-01-24T06:29:54.606Z,99.90
2018-01-24T06:32:22.123Z,99.90
2018-01-24T06:34:49.679Z,99.90
2018-01-24T06:37:17.233Z,99.90
2018-01-24T06:39:44.772Z,99.90
2018-01-24T06:42:12.325Z,99.90
2018-01-24T06:44:40.648Z,99.90
2018-01-24T06:47:08.964Z,99.90
2018-01-24T06:49:36.627Z,99.90
2018-01-24T06:52:04.171Z,99.90
2018-01-24T06:54:31.724Z,99.90
2018-01-24T06:56:59.272Z,99.90
2018-01-24T06:59:27.563Z,99.90
2018-01-24T07:01:55.101Z,99.90
2018-01-24T07:04:23.399Z,99.90
2018-01-24T07:06:51.723Z,99.90
2018-01-24T07:09:19.248Z,99.90
2018-01-24T07:11:46.795Z,99.90
2018-01-24T07:14:26.273Z,99.90
2018-01-24T07:16:53.815Z,99.90
2018-01-24T07:19:21.353Z,99.90
2018-01-24T07:21:49.677Z,99.90
2018-01-24T07:24:17.208Z,99.90
2018-01-24T07:26:44.752Z,99.90
2018-01-24T07:29:12.276Z,99.90
2018-01-24T07:31:39.845Z,99.90
2018-01-24T07:34:07.379Z,99.90
2018-01-24T07:36:34.910Z,99.90
2018-01-24T07:39:02.459Z,99.90
2018-01-24T07:41:29.984Z,99.90
2018-01-24T07:43:57.538Z,99.90
2018-01-24T07:46:25.086Z,99.90
2018-01-24T07:48:52.642Z,99.90
2018-01-24T07:51:20.168Z,99.90
2018-01-24T07:53:48.492Z,99.90
2018-01-24T07:56:16.022Z,99.90
2018-01-24T07:58:44.337Z,99.90
2018-01-24T08:01:11.869Z,99.90
2018-01-24T08:03:39.420Z,99.90
2018-01-24T08:06:07.705Z,99.90
2018-01-24T08:08:36.221Z,99.90
2018-01-24T08:11:03.758Z,99.90
2018-01-24T08:13:32.265Z,99.90
2018-01-24T08:15:59.830Z,99.90
2018-01-24T08:18:27.412Z,99.90
2018-01-24T08:20:55.736Z,99.90
2018-01-24T08:23:23.269Z,99.90
2018-01-24T08:25:50.853Z,99.90
2018-01-24T08:28:18.424Z,99.90
2018-01-24T08:30:45.959Z,99.90
2018-01-24T08:33:13.524Z,99.90
2018-01-24T08:35:41.078Z,99.90
2018-01-24T08:38:08.645Z,99.90
2018-01-24T08:40:37.020Z,99.90
2018-01-24T08:43:04.600Z,99.90
2018-01-24T08:45:33.029Z,99.90
2018-01-24T08:48:01.357Z,99.90
2018-01-24T08:50:28.892Z,99.90
2018-01-24T08:52:56.462Z,99.90
2018-01-24T08:55:23.991Z,99.90
2018-01-24T08:57:51.542Z,99.90
2018-01-24T09:00:19.103Z,99.90
2018-01-24T09:02:47.358Z,99.90
2018-01-24T09:05:15.696Z,99.90
2018-01-24T09:07:43.229Z,99.90
2018-01-24T09:10:10.773Z,99.90
2018-01-24T09:12:39.090Z,99.90
2018-01-24T09:15:06.632Z,99.90
2018-01-24T09:17:34.307Z,99.90
2018-01-24T09:20:01.835Z,99.90
2018-01-24T09:22:29.383Z,99.90
2018-01-24T09:24:57.703Z,99.90
2018-01-24T09:27:25.326Z,99.90
2018-01-24T09:29:53.456Z,99.90
2018-01-24T09:32:21.038Z,99.90
2018-01-24T09:34:48.588Z,99.90
2018-01-24T09:37:16.155Z,99.90
2018-01-24T09:39:44.664Z,99.90
2018-01-24T09:42:12.960Z,99.90
2018-01-24T09:44:40.492Z,99.90
2018-01-24T09:47:08.808Z,99.90
2018-01-24T09:49:36.344Z,99.90
2018-01-24T09:52:04.672Z,99.90
2018-01-24T09:54:32.212Z,99.90
2018-01-24T09:56:59.762Z,99.90
2018-01-24T09:59:27.305Z,99.90
2018-01-24T10:01:54.852Z,99.90
2018-01-24T10:04:23.157Z,99.90
2018-01-24T10:06:50.969Z,99.90
2018-01-24T10:09:18.504Z,99.90
2018-01-24T10:11:46.037Z,99.90
2018-01-24T10:14:13.594Z,99.90
2018-01-24T10:16:41.164Z,99.90
2018-01-24T10:19:08.725Z,99.90
2018-01-24T10:21:36.334Z,99.90
2018-01-24T10:24:03.880Z,99.90
2018-01-24T10:26:31.436Z,99.90
2018-01-24T10:28:59.745Z,99.90
2018-01-24T10:31:27.272Z,99.90
2018-01-24T10:33:54.804Z,99.90
2018-01-24T10:36:23.120Z,99.90
2018-01-24T10:38:50.648Z,99.90
2018-01-24T10:41:18.979Z,96.40
2018-01-24T10:43:46.521Z,96.30
2018-01-24T10:46:14.052Z,96.10
2018-01-24T10:48:42.378Z,99.90
2018-01-24T10:51:09.906Z,99.90
2018-01-24T10:53:37.440Z,99.70
2018-01-24T10:56:06.030Z,99.90
2018-01-24T10:58:34.317Z,99.90
2018-01-24T11:01:01.868Z,99.90
2018-01-24T11:03:29.401Z,99.90
2018-01-24T11:05:56.962Z,99.90
2018-01-24T11:08:25.290Z,99.90
2018-01-24T11:10:52.848Z,99.90
2018-01-24T11:13:20.383Z,99.90
2018-01-24T11:15:47.951Z,99.90
2018-01-24T11:18:15.525Z,99.90
2018-01-24T11:20:43.064Z,99.90
2018-01-24T11:23:10.616Z,99.90
2018-01-24T11:25:38.147Z,99.90
2018-01-24T11:28:06.493Z,99.90
2018-01-24T11:30:34.028Z,99.90
2018-01-24T11:33:01.623Z,99.90
2018-01-24T11:35:29.173Z,99.90
2018-01-24T11:37:56.734Z,99.90
2018-01-24T11:40:24.290Z,99.90
2018-01-24T11:42:52.576Z,99.90
2018-01-24T11:45:20.140Z,99.90
2018-01-24T11:47:47.678Z,99.90
2018-01-24T11:50:15.997Z,99.90
2018-01-24T11:52:43.553Z,99.90
2018-01-24T11:55:11.096Z,99.90
2018-01-24T11:57:38.634Z,99.90
2018-01-24T12:00:06.970Z,99.90
2018-01-24T12:02:34.512Z,99.90
2018-01-24T12:05:02.080Z,99.90
2018-01-24T12:07:29.603Z,99.90
2018-01-24T12:09:57.165Z,99.90
2018-01-24T12:12:24.729Z,98.70
2018-01-24T12:14:52.280Z,99.90
2018-01-24T12:17:20.587Z,99.90
2018-01-24T12:19:48.146Z,99.90
2018-01-24T12:22:15.702Z,99.90
2018-01-24T12:24:43.226Z,99.90
2018-01-24T12:27:11.540Z,96.70
2018-01-24T12:29:39.069Z,96.50
2018-01-24T12:32:07.402Z,94.60
2018-01-24T12:34:34.939Z,94.60
2018-01-24T12:37:02.480Z,95.70
2018-01-24T12:39:30.002Z,96.80
2018-01-24T12:41:57.588Z,95.50
2018-01-24T12:44:25.121Z,95.70
2018-01-24T12:46:52.677Z,97.00
2018-01-24T12:49:20.363Z,93.60
2018-01-24T12:51:47.917Z,91.10
2018-01-24T12:54:15.525Z,96.40
2018-01-24T12:56:43.850Z,99.90
2018-01-24T12:59:11.392Z,99.90
2018-01-24T13:01:38.920Z,99.90
2018-01-24T13:04:06.464Z,99.90
2018-01-24T13:06:34.015Z,99.30
2018-01-24T13:09:01.560Z,95.50
2018-01-24T13:11:29.870Z,90.10
2018-01-24T13:13:57.448Z,90.00
2018-01-24T13:16:25.011Z,92.00
2018-01-24T13:18:52.550Z,96.80
2018-01-24T13:21:20.139Z,99.80
2018-01-24T13:23:47.673Z,98.40
2018-01-24T13:26:15.232Z,95.60
2018-01-24T13:28:43.971Z,99.20
2018-01-24T13:31:11.541Z,99.20
2018-01-24T13:33:39.104Z,99.90
2018-01-24T13:36:06.667Z,99.90
2018-01-24T13:38:34.232Z,99.90
2018-01-24T13:41:01.765Z,99.90
2018-01-24T13:43:29.308Z,99.90
2018-01-24T13:45:56.885Z,99.90
2018-01-24T13:48:24.425Z,99.90
2018-01-24T13:50:51.988Z,99.90
2018-01-24T13:53:20.526Z,99.90
2018-01-24T13:55:48.075Z,99.90
2018-01-24T13:58:15.620Z,99.90
2018-01-24T14:00:43.183Z,99.90
2018-01-24T14:03:10.733Z,99.90
2018-01-24T14:05:38.306Z,99.90
2018-01-24T14:08:05.861Z,99.90
2018-01-24T14:10:33.456Z,99.90
2018-01-24T14:13:01.808Z,99.90
2018-01-24T14:15:30.174Z,99.90
2018-01-24T14:17:57.736Z,99.90
2018-01-24T14:20:25.312Z,99.90
2018-01-24T14:22:52.884Z,99.90
2018-01-24T14:25:20.433Z,99.90
2018-01-24T14:27:47.970Z,99.90
2018-01-24T14:30:15.538Z,99.90
2018-01-24T14:32:43.069Z,99.90
2018-01-24T14:35:10.648Z,99.90
2018-01-24T14:37:40.006Z,99.90
2018-01-24T14:40:07.564Z,99.90
2018-01-24T14:42:35.117Z,99.90
2018-01-24T14:45:02.671Z,99.90
2018-01-24T14:47:30.216Z,99.90
2018-01-24T14:49:57.784Z,99.90
2018-01-24T14:52:25.332Z,99.90
2018-01-24T14:54:52.897Z,99.90
2018-01-24T14:57:20.461Z,99.90
2018-01-24T14:59:47.999Z,99.90
2018-01-24T15:02:15.552Z,99.90
2018-01-24T15:04:43.857Z,99.90
2018-01-24T15:07:11.708Z,99.90
2018-01-24T15:09:39.941Z,99.90
2018-01-24T15:12:07.518Z,99.90
2018-01-24T15:14:35.836Z,99.90
2018-01-24T15:17:03.380Z,99.90
2018-01-24T15:19:30.959Z,99.90
2018-01-24T15:21:58.508Z,99.90
2018-01-24T15:24:26.055Z,99.90
2018-01-24T15:26:53.609Z,99.90
2018-01-24T15:29:21.921Z,99.90
2018-01-24T15:31:49.456Z,99.90
2018-01-24T15:34:17.011Z,99.90
2018-01-24T15:36:44.560Z,99.90
2018-01-24T15:39:12.896Z,99.90
2018-01-24T15:41:40.431Z,99.90
2018-01-24T15:44:08.004Z,99.90
2018-01-24T15:46:35.553Z,99.90
2018-01-24T15:49:03.104Z,99.90
2018-01-24T15:51:30.646Z,99.90
2018-01-24T15:53:59.054Z,99.90
2018-01-24T15:56:26.634Z,99.90
2018-01-24T15:58:54.189Z,99.90
2018-01-24T16:01:21.758Z,99.90
2018-01-24T16:03:49.313Z,99.90
2018-01-24T16:06:16.852Z,99.90
2018-01-24T16:08:44.411Z,99.90
2018-01-24T16:11:11.989Z,99.90
2018-01-24T16:13:39.537Z,99.90
2018-01-24T16:16:07.135Z,99.90
2018-01-24T16:18:34.709Z,99.90
2018-01-24T16:21:02.258Z,99.90
2018-01-24T16:23:29.836Z,99.90
2018-01-24T16:25:58.157Z,99.90
2018-01-24T16:28:25.742Z,99.90
2018-01-24T16:30:53.260Z,99.90
2018-01-24T16:33:20.833Z,99.90
2018-01-24T16:35:48.363Z,99.90
2018-01-24T16:38:16.661Z,99.90
2018-01-24T16:40:44.216Z,99.90
2018-01-24T16:43:12.288Z,99.90
2018-01-24T16:45:39.838Z,99.90
2018-01-24T16:48:07.394Z,99.90
2018-01-24T16:50:35.003Z,99.90
2018-01-24T16:53:02.531Z,99.90
2018-01-24T16:55:30.070Z,99.90
2018-01-24T16:57:58.418Z,99.90
2018-01-24T17:00:26.005Z,99.90
2018-01-24T17:02:54.327Z,99.90
2018-01-24T17:05:21.870Z,99.90
2018-01-24T17:07:49.415Z,99.90
2018-01-24T17:10:16.943Z,99.90
2018-01-24T17:12:44.487Z,99.90
2018-01-24T17:15:12.784Z,99.90
2018-01-24T17:17:40.352Z,99.90
2018-01-24T17:20:07.884Z,99.90
2018-01-24T17:22:36.180Z,99.90
2018-01-24T17:25:04.968Z,99.90
2018-01-24T17:27:32.492Z,99.90
2018-01-24T17:30:00.078Z,99.90
2018-01-24T17:32:27.600Z,99.90
2018-01-24T17:34:55.164Z,99.90
2018-01-24T17:37:22.701Z,99.90
2018-01-24T17:39:50.257Z,99.90
2018-01-24T17:42:17.787Z,99.90
2018-01-24T17:44:45.353Z,99.90
2018-01-24T17:47:12.876Z,99.90
2018-01-24T17:49:41.172Z,99.90
2018-01-24T17:52:09.751Z,99.90
2018-01-24T17:54:38.079Z,99.90
2018-01-24T17:57:05.631Z,99.90
2018-01-24T17:59:33.175Z,99.90
2018-01-24T18:02:00.701Z,99.90
2018-01-24T18:04:29.033Z,99.90
2018-01-24T18:06:57.540Z,99.90
2018-01-24T18:09:26.594Z,99.90
2018-01-24T18:11:54.154Z,99.90
2018-01-24T18:14:21.679Z,99.90
2018-01-24T18:16:50.095Z,99.90
2018-01-24T18:19:18.448Z,99.90
2018-01-24T18:21:46.005Z,99.90
2018-01-24T18:24:14.343Z,99.90
2018-01-24T18:26:41.865Z,99.90
2018-01-24T18:29:09.421Z,99.90
2018-01-24T18:31:36.969Z,99.90
2018-01-24T18:34:04.505Z,99.90
2018-01-24T18:36:34.260Z,99.90
2018-01-24T18:39:01.781Z,99.90
2018-01-24T18:41:29.330Z,99.90
2018-01-24T18:43:57.617Z,99.90
2018-01-24T18:46:26.773Z,99.90
2018-01-24T18:48:54.300Z,99.90
2018-01-24T18:51:21.861Z,99.90
2018-01-24T18:53:49.400Z,99.90
2018-01-24T18:56:16.939Z,99.90
2018-01-24T18:58:45.270Z,99.90
2018-01-24T19:01:12.803Z,99.90
2018-01-24T19:03:40.353Z,99.90
2018-01-24T19:06:07.883Z,99.90
2018-01-24T19:08:35.452Z,99.90
2018-01-24T19:11:03.817Z,99.90
2018-01-24T19:13:31.336Z,99.90
2018-01-24T19:15:58.891Z,99.90
2018-01-24T19:18:26.452Z,99.90
2018-01-24T19:20:53.982Z,99.90
2018-01-24T19:23:21.548Z,99.90
2018-01-24T19:25:49.065Z,99.90
2018-01-24T19:28:16.609Z,99.90
2018-01-24T19:30:44.918Z,99.90
2018-01-24T19:33:12.456Z,99.90
2018-01-24T19:35:40.024Z,99.90
2018-01-24T19:38:07.579Z,99.90
2018-01-24T19:40:35.139Z,99.90
2018-01-24T19:43:02.708Z,99.90
2018-01-24T19:45:30.254Z,99.90
2018-01-24T19:47:57.820Z,99.90
2018-01-24T19:50:25.349Z,99.90
2018-01-24T19:52:52.908Z,99.90
2018-01-24T19:55:20.437Z,99.90
2018-01-24T19:57:48.032Z,99.90
2018-01-24T20:00:15.581Z,99.90
2018-01-24T20:02:43.124Z,99.90
2018-01-24T20:05:10.680Z,99.90
2018-01-24T20:07:38.212Z,99.90
2018-01-24T20:10:06.542Z,99.90
2018-01-24T20:12:34.069Z,99.90
2018-01-24T20:15:01.627Z,99.90
2018-01-24T20:17:29.487Z,99.90
2018-01-24T20:19:57.089Z,99.90
2018-01-24T20:22:26.153Z,99.90
2018-01-24T20:24:53.748Z,99.90
2018-01-24T20:27:21.274Z,99.90
2018-01-24T20:29:48.814Z,99.90
2018-01-24T20:32:16.365Z,99.90
2018-01-24T20:34:43.916Z,99.90
2018-01-24T20:37:12.232Z,99.90
2018-01-24T20:39:39.812Z,99.90
2018-01-24T20:42:07.444Z,99.90
2018-01-24T20:44:34.989Z,99.90
2018-01-24T20:47:02.549Z,99.90
2018-01-24T20:49:30.085Z,99.90
2018-01-24T20:51:57.617Z,99.90
2018-01-24T20:54:25.961Z,99.90
2018-01-24T20:56:53.584Z,99.90
2018-01-24T20:59:21.148Z,99.90
2018-01-24T21:01:48.700Z,99.90
2018-01-24T21:04:16.244Z,99.90
2018-01-24T21:06:44.542Z,99.90
2018-01-24T21:09:12.108Z,99.90
2018-01-24T21:11:39.653Z,99.90
2018-01-24T21:14:07.979Z,99.90
2018-01-24T21:16:35.533Z,99.90
2018-01-24T21:19:03.074Z,99.90
2018-01-24T21:21:30.616Z,99.90
2018-01-24T21:23:58.173Z,99.90
2018-01-24T21:26:25.738Z,99.90
2018-01-24T21:29:05.089Z,99.90
2018-01-24T21:31:44.544Z,99.90
2018-01-24T21:34:23.967Z,99.90
2018-01-24T21:36:58.100Z,99.90
2018-01-24T21:39:25.694Z,99.90
2018-01-24T21:41:53.220Z,99.90
2018-01-24T21:44:21.524Z,99.90
2018-01-24T21:46:49.063Z,99.90
2018-01-24T21:49:16.585Z,99.90
2018-01-24T21:51:45.625Z,99.90
2018-01-24T21:54:13.152Z,99.90
2018-01-24T21:56:40.698Z,99.90
2018-01-24T21:59:08.248Z,99.90
2018-01-24T22:01:35.792Z,99.90
2018-01-24T22:04:04.097Z,99.90
2018-01-24T22:06:31.632Z,99.90
2018-01-24T22:08:59.956Z,99.90
2018-01-24T22:11:27.499Z,99.90
2018-01-24T22:13:55.044Z,99.90
2018-01-24T22:16:22.616Z,99.90
2018-01-24T22:18:50.204Z,99.90
2018-01-24T22:21:17.777Z,99.90
2018-01-24T22:23:46.099Z,99.90
2018-01-24T22:26:13.633Z,99.90
2018-01-24T22:28:41.188Z,99.90
2018-01-24T22:31:08.715Z,99.90
2018-01-24T22:33:37.053Z,99.90
2018-01-24T22:36:04.579Z,99.90
2018-01-24T22:38:32.104Z,99.90
2018-01-24T22:40:59.657Z,99.90
2018-01-24T22:43:27.184Z,99.90
2018-01-24T22:45:54.780Z,99.90
2018-01-24T22:48:22.308Z,99.90
2018-01-24T22:50:49.884Z,99.90
2018-01-24T22:53:17.419Z,99.90
2018-01-24T22:55:44.971Z,99.90
2018-01-24T22:58:12.524Z,99.90
2018-01-24T23:00:40.091Z,99.90
2018-01-24T23:03:07.611Z,99.90
2018-01-24T23:05:35.924Z,99.90
2018-01-24T23:08:03.455Z,99.90
2018-01-24T23:10:31.792Z,99.90
2018-01-24T23:12:59.352Z,99.90
2018-01-24T23:15:26.875Z,99.90
2018-01-24T23:17:54.416Z,99.90
2018-01-24T23:20:22.718Z,99.90
2018-01-24T23:22:50.272Z,99.90
2018-01-24T23:25:17.804Z,99.90
2018-01-24T23:27:46.121Z,99.90
2018-01-24T23:30:13.648Z,99.90
2018-01-24T23:32:41.223Z,99.90
2018-01-24T23:35:08.744Z,99.90
2018-01-24T23:37:36.292Z,99.90
2018-01-24T23:40:03.826Z,99.90
2018-01-24T23:42:31.394Z,99.90
2018-01-24T23:44:59.740Z,99.90
2018-01-24T23:47:27.280Z,99.90
2018-01-24T23:49:54.804Z,99.90
2018-01-24T23:52:23.101Z,99.90
2018-01-24T23:54:50.635Z,99.90
2018-01-24T23:57:18.192Z,99.90
2018-01-24T23:59:46.499Z,99.90
